sensor_id;sensor_type;location;lat;lon;timestamp;P1;durP1;ratioP1;P2;durP2;ratioP2
31584;SDS011;18191;51.288;12.390;2023-09-07T00:03:05;22.92;;;8.30;;
31584;SDS011;18191;51.288;12.390;2023-09-07T00:07:55;29.73;;;8.80;;
31584;SDS011;18191;51.288;12.390;2023-09-07T00:17:36;28.92;;;7.72;;
31584;SDS011;18191;51.288;12.390;2023-09-07T00:27:16;18.30;;;6.97;;
31584;SDS011;18191;51.288;12.390;2023-09-07T00:32:06;22.95;;;6.70;;
31584;SDS011;18191;51.288;12.390;2023-09-07T00:36:57;22.90;;;8.13;;
31584;SDS011;18191;51.288;12.390;2023-09-07T00:46:37;18.40;;;6.70;;
31584;SDS011;18191;51.288;12.390;2023-09-07T00:51:27;18.10;;;6.00;;
31584;SDS011;18191;51.288;12.390;2023-09-07T01:01:08;16.85;;;6.38;;
31584;SDS011;18191;51.288;12.390;2023-09-07T01:10:49;19.10;;;8.27;;
31584;SDS011;18191;51.288;12.390;2023-09-07T01:15:39;17.25;;;8.27;;
31584;SDS011;18191;51.288;12.390;2023-09-07T01:20:30;20.00;;;8.05;;
31584;SDS011;18191;51.288;12.390;2023-09-07T01:25:21;21.05;;;8.63;;
31584;SDS011;18191;51.288;12.390;2023-09-07T01:35:01;12.85;;;6.20;;
31584;SDS011;18191;51.288;12.390;2023-09-07T01:39:54;12.65;;;5.95;;
31584;SDS011;18191;51.288;12.390;2023-09-07T01:44:44;12.68;;;6.00;;
31584;SDS011;18191;51.288;12.390;2023-09-07T01:49:35;15.93;;;6.10;;
31584;SDS011;18191;51.288;12.390;2023-09-07T01:54:25;12.70;;;5.45;;
31584;SDS011;18191;51.288;12.390;2023-09-07T01:59:15;15.82;;;6.00;;
31584;SDS011;18191;51.288;12.390;2023-09-07T02:04:05;14.77;;;5.70;;
31584;SDS011;18191;51.288;12.390;2023-09-07T02:08:56;11.10;;;4.80;;
31584;SDS011;18191;51.288;12.390;2023-09-07T02:13:46;10.27;;;4.88;;
31584;SDS011;18191;51.288;12.390;2023-09-07T02:23:33;11.70;;;5.53;;
31584;SDS011;18191;51.288;12.390;2023-09-07T02:28:23;12.82;;;5.22;;
31584;SDS011;18191;51.288;12.390;2023-09-07T02:33:14;10.25;;;4.78;;
31584;SDS011;18191;51.288;12.390;2023-09-07T02:38:04;12.02;;;5.50;;
31584;SDS011;18191;51.288;12.390;2023-09-07T02:42:54;10.05;;;4.90;;
31584;SDS011;18191;51.288;12.390;2023-09-07T02:47:44;9.57;;;5.25;;
31584;SDS011;18191;51.288;12.390;2023-09-07T02:52:34;7.47;;;4.10;;
31584;SDS011;18191;51.288;12.390;2023-09-07T02:57:25;8.98;;;4.72;;
31584;SDS011;18191;51.288;12.390;2023-09-07T03:02:15;10.52;;;5.95;;
31584;SDS011;18191;51.288;12.390;2023-09-07T03:07:05;19.27;;;6.72;;
31584;SDS011;18191;51.288;12.390;2023-09-07T03:11:55;16.58;;;7.13;;
31584;SDS011;18191;51.288;12.390;2023-09-07T03:16:45;13.30;;;5.88;;
31584;SDS011;18191;51.288;12.390;2023-09-07T03:21:38;26.35;;;6.95;;
31584;SDS011;18191;51.288;12.390;2023-09-07T03:26:28;15.23;;;6.18;;
31584;SDS011;18191;51.288;12.390;2023-09-07T03:31:19;10.63;;;5.72;;
31584;SDS011;18191;51.288;12.390;2023-09-07T03:36:09;14.15;;;7.28;;
31584;SDS011;18191;51.288;12.390;2023-09-07T03:41:00;17.10;;;6.70;;
31584;SDS011;18191;51.288;12.390;2023-09-07T03:45:50;12.73;;;6.55;;
31584;SDS011;18191;51.288;12.390;2023-09-07T03:50:40;16.95;;;6.40;;
31584;SDS011;18191;51.288;12.390;2023-09-07T03:55:39;14.73;;;6.10;;
31584;SDS011;18191;51.288;12.390;2023-09-07T04:00:29;9.63;;;5.38;;
31584;SDS011;18191;51.288;12.390;2023-09-07T04:10:10;15.02;;;6.00;;
31584;SDS011;18191;51.288;12.390;2023-09-07T04:15:01;12.88;;;5.15;;
31584;SDS011;18191;51.288;12.390;2023-09-07T04:19:52;11.63;;;5.50;;
31584;SDS011;18191;51.288;12.390;2023-09-07T04:24:42;17.10;;;5.25;;
31584;SDS011;18191;51.288;12.390;2023-09-07T04:29:32;13.15;;;6.05;;
31584;SDS011;18191;51.288;12.390;2023-09-07T04:34:23;13.15;;;5.55;;
31584;SDS011;18191;51.288;12.390;2023-09-07T04:39:13;19.40;;;5.68;;
31584;SDS011;18191;51.288;12.390;2023-09-07T04:44:04;15.05;;;6.95;;
31584;SDS011;18191;51.288;12.390;2023-09-07T04:48:54;24.58;;;10.20;;
31584;SDS011;18191;51.288;12.390;2023-09-07T04:53:44;27.23;;;9.60;;
31584;SDS011;18191;51.288;12.390;2023-09-07T04:58:35;19.20;;;6.75;;
31584;SDS011;18191;51.288;12.390;2023-09-07T05:03:25;19.75;;;6.50;;
31584;SDS011;18191;51.288;12.390;2023-09-07T05:08:15;8.93;;;4.88;;
31584;SDS011;18191;51.288;12.390;2023-09-07T05:13:05;16.48;;;5.97;;
31584;SDS011;18191;51.288;12.390;2023-09-07T05:17:55;10.18;;;4.72;;
31584;SDS011;18191;51.288;12.390;2023-09-07T05:22:46;10.43;;;4.80;;
31584;SDS011;18191;51.288;12.390;2023-09-07T05:27:39;14.75;;;5.10;;
31584;SDS011;18191;51.288;12.390;2023-09-07T05:32:29;18.70;;;6.38;;
31584;SDS011;18191;51.288;12.390;2023-09-07T05:37:19;14.15;;;5.70;;
31584;SDS011;18191;51.288;12.390;2023-09-07T05:42:10;12.13;;;6.22;;
31584;SDS011;18191;51.288;12.390;2023-09-07T05:47:00;17.13;;;6.33;;
31584;SDS011;18191;51.288;12.390;2023-09-07T05:51:52;18.20;;;6.30;;
31584;SDS011;18191;51.288;12.390;2023-09-07T05:56:42;11.05;;;6.63;;
31584;SDS011;18191;51.288;12.390;2023-09-07T06:01:32;16.90;;;7.50;;
31584;SDS011;18191;51.288;12.390;2023-09-07T06:06:22;16.80;;;7.20;;
31584;SDS011;18191;51.288;12.390;2023-09-07T06:11:12;15.18;;;7.03;;
31584;SDS011;18191;51.288;12.390;2023-09-07T06:16:03;20.45;;;7.85;;
31584;SDS011;18191;51.288;12.390;2023-09-07T06:25:43;15.13;;;7.57;;
31584;SDS011;18191;51.288;12.390;2023-09-07T06:30:33;14.15;;;6.80;;
31584;SDS011;18191;51.288;12.390;2023-09-07T06:35:23;27.83;;;7.78;;
31584;SDS011;18191;51.288;12.390;2023-09-07T06:40:14;17.60;;;7.47;;
31584;SDS011;18191;51.288;12.390;2023-09-07T06:45:05;14.52;;;6.88;;
31584;SDS011;18191;51.288;12.390;2023-09-07T06:49:56;12.50;;;5.70;;
31584;SDS011;18191;51.288;12.390;2023-09-07T06:54:46;22.90;;;6.40;;
31584;SDS011;18191;51.288;12.390;2023-09-07T06:59:37;12.13;;;5.60;;
31584;SDS011;18191;51.288;12.390;2023-09-07T07:04:27;16.53;;;6.00;;
31584;SDS011;18191;51.288;12.390;2023-09-07T07:09:17;10.10;;;4.97;;
31584;SDS011;18191;51.288;12.390;2023-09-07T07:14:07;11.52;;;5.03;;
31584;SDS011;18191;51.288;12.390;2023-09-07T07:18:58;7.93;;;4.13;;
31584;SDS011;18191;51.288;12.390;2023-09-07T07:23:48;19.70;;;4.93;;
31584;SDS011;18191;51.288;12.390;2023-09-07T07:28:39;19.25;;;5.50;;
31584;SDS011;18191;51.288;12.390;2023-09-07T07:33:29;8.90;;;4.85;;
31584;SDS011;18191;51.288;12.390;2023-09-07T07:38:19;14.38;;;4.88;;
31584;SDS011;18191;51.288;12.390;2023-09-07T07:43:09;8.73;;;3.90;;
31584;SDS011;18191;51.288;12.390;2023-09-07T07:48:00;7.10;;;4.07;;
31584;SDS011;18191;51.288;12.390;2023-09-07T07:52:51;9.27;;;4.07;;
31584;SDS011;18191;51.288;12.390;2023-09-07T07:57:42;9.60;;;4.82;;
31584;SDS011;18191;51.288;12.390;2023-09-07T08:02:32;6.68;;;4.07;;
31584;SDS011;18191;51.288;12.390;2023-09-07T08:07:22;8.77;;;4.60;;
31584;SDS011;18191;51.288;12.390;2023-09-07T08:12:12;12.57;;;5.00;;
31584;SDS011;18191;51.288;12.390;2023-09-07T08:17:02;10.05;;;4.22;;
31584;SDS011;18191;51.288;12.390;2023-09-07T08:21:53;15.30;;;4.47;;
31584;SDS011;18191;51.288;12.390;2023-09-07T08:26:43;10.18;;;3.53;;
31584;SDS011;18191;51.288;12.390;2023-09-07T08:31:34;8.00;;;3.92;;
31584;SDS011;18191;51.288;12.390;2023-09-07T08:36:24;8.50;;;3.55;;
31584;SDS011;18191;51.288;12.390;2023-09-07T08:41:18;12.77;;;3.70;;
31584;SDS011;18191;51.288;12.390;2023-09-07T08:51:02;7.70;;;4.10;;
31584;SDS011;18191;51.288;12.390;2023-09-07T08:55:53;7.75;;;3.60;;
31584;SDS011;18191;51.288;12.390;2023-09-07T09:00:43;6.35;;;3.08;;
31584;SDS011;18191;51.288;12.390;2023-09-07T09:05:33;8.43;;;3.13;;
31584;SDS011;18191;51.288;12.390;2023-09-07T09:10:24;9.40;;;3.60;;
31584;SDS011;18191;51.288;12.390;2023-09-07T09:15:14;6.80;;;3.33;;
31584;SDS011;18191;51.288;12.390;2023-09-07T09:20:05;5.85;;;3.25;;
31584;SDS011;18191;51.288;12.390;2023-09-07T09:25:09;11.75;;;3.90;;
31584;SDS011;18191;51.288;12.390;2023-09-07T09:29:59;6.45;;;3.40;;
31584;SDS011;18191;51.288;12.390;2023-09-07T09:44:30;5.25;;;2.90;;
31584;SDS011;18191;51.288;12.390;2023-09-07T09:49:21;10.45;;;3.80;;
31584;SDS011;18191;51.288;12.390;2023-09-07T09:54:12;7.05;;;4.00;;
31584;SDS011;18191;51.288;12.390;2023-09-07T09:59:03;11.43;;;4.30;;
31584;SDS011;18191;51.288;12.390;2023-09-07T10:03:54;11.38;;;4.40;;
31584;SDS011;18191;51.288;12.390;2023-09-07T10:08:58;9.82;;;3.97;;
31584;SDS011;18191;51.288;12.390;2023-09-07T10:13:56;9.43;;;3.67;;
31584;SDS011;18191;51.288;12.390;2023-09-07T10:18:46;9.05;;;4.70;;
31584;SDS011;18191;51.288;12.390;2023-09-07T10:23:43;11.80;;;4.72;;
31584;SDS011;18191;51.288;12.390;2023-09-07T10:28:34;14.20;;;4.38;;
31584;SDS011;18191;51.288;12.390;2023-09-07T10:33:24;9.43;;;4.63;;
31584;SDS011;18191;51.288;12.390;2023-09-07T10:38:14;18.73;;;4.55;;
31584;SDS011;18191;51.288;12.390;2023-09-07T10:43:05;9.88;;;3.38;;
31584;SDS011;18191;51.288;12.390;2023-09-07T10:47:55;10.70;;;3.28;;
31584;SDS011;18191;51.288;12.390;2023-09-07T10:52:45;11.35;;;3.67;;
31584;SDS011;18191;51.288;12.390;2023-09-07T10:57:42;9.30;;;3.88;;
31584;SDS011;18191;51.288;12.390;2023-09-07T11:02:32;7.13;;;3.58;;
31584;SDS011;18191;51.288;12.390;2023-09-07T11:07:23;7.45;;;3.50;;
31584;SDS011;18191;51.288;12.390;2023-09-07T11:12:13;5.10;;;2.72;;
31584;SDS011;18191;51.288;12.390;2023-09-07T11:17:05;6.32;;;3.03;;
31584;SDS011;18191;51.288;12.390;2023-09-07T11:21:55;6.55;;;3.20;;
31584;SDS011;18191;51.288;12.390;2023-09-07T11:26:46;4.82;;;2.80;;
31584;SDS011;18191;51.288;12.390;2023-09-07T11:31:37;5.57;;;2.95;;
31584;SDS011;18191;51.288;12.390;2023-09-07T11:36:27;9.25;;;2.70;;
31584;SDS011;18191;51.288;12.390;2023-09-07T11:41:17;5.50;;;3.40;;
31584;SDS011;18191;51.288;12.390;2023-09-07T11:46:08;4.68;;;2.97;;
31584;SDS011;18191;51.288;12.390;2023-09-07T11:50:58;10.25;;;3.50;;
31584;SDS011;18191;51.288;12.390;2023-09-07T11:55:48;12.65;;;3.05;;
31584;SDS011;18191;51.288;12.390;2023-09-07T12:00:39;13.63;;;3.30;;
31584;SDS011;18191;51.288;12.390;2023-09-07T12:05:31;9.15;;;3.45;;
31584;SDS011;18191;51.288;12.390;2023-09-07T12:10:22;9.48;;;3.20;;
31584;SDS011;18191;51.288;12.390;2023-09-07T12:15:12;8.95;;;3.22;;
31584;SDS011;18191;51.288;12.390;2023-09-07T12:20:03;5.32;;;3.40;;
31584;SDS011;18191;51.288;12.390;2023-09-07T12:24:55;4.72;;;2.88;;
31584;SDS011;18191;51.288;12.390;2023-09-07T12:29:45;9.63;;;3.33;;
31584;SDS011;18191;51.288;12.390;2023-09-07T12:34:35;6.32;;;2.47;;
31584;SDS011;18191;51.288;12.390;2023-09-07T12:39:26;4.55;;;2.72;;
31584;SDS011;18191;51.288;12.390;2023-09-07T12:44:16;11.60;;;3.03;;
31584;SDS011;18191;51.288;12.390;2023-09-07T12:49:08;5.88;;;2.78;;
31584;SDS011;18191;51.288;12.390;2023-09-07T12:53:58;7.43;;;3.38;;
31584;SDS011;18191;51.288;12.390;2023-09-07T12:58:49;7.53;;;2.72;;
31584;SDS011;18191;51.288;12.390;2023-09-07T13:03:42;6.28;;;3.05;;
31584;SDS011;18191;51.288;12.390;2023-09-07T13:08:32;10.85;;;2.58;;
31584;SDS011;18191;51.288;12.390;2023-09-07T13:13:23;8.90;;;2.63;;
31584;SDS011;18191;51.288;12.390;2023-09-07T13:18:15;8.75;;;2.97;;
31584;SDS011;18191;51.288;12.390;2023-09-07T13:23:06;7.22;;;2.75;;
31584;SDS011;18191;51.288;12.390;2023-09-07T13:27:56;3.70;;;2.30;;
31584;SDS011;18191;51.288;12.390;2023-09-07T13:32:46;8.82;;;2.22;;
31584;SDS011;18191;51.288;12.390;2023-09-07T13:37:36;7.37;;;3.17;;
31584;SDS011;18191;51.288;12.390;2023-09-07T13:42:28;5.30;;;2.87;;
31584;SDS011;18191;51.288;12.390;2023-09-07T13:47:18;4.03;;;2.42;;
31584;SDS011;18191;51.288;12.390;2023-09-07T13:52:08;4.82;;;2.50;;
31584;SDS011;18191;51.288;12.390;2023-09-07T13:56:59;6.75;;;2.65;;
31584;SDS011;18191;51.288;12.390;2023-09-07T14:01:49;4.82;;;2.72;;
31584;SDS011;18191;51.288;12.390;2023-09-07T14:06:41;11.95;;;2.67;;
31584;SDS011;18191;51.288;12.390;2023-09-07T14:11:32;4.43;;;2.42;;
31584;SDS011;18191;51.288;12.390;2023-09-07T14:16:23;4.72;;;2.70;;
31584;SDS011;18191;51.288;12.390;2023-09-07T14:21:14;5.18;;;2.65;;
31584;SDS011;18191;51.288;12.390;2023-09-07T14:26:05;13.73;;;2.28;;
31584;SDS011;18191;51.288;12.390;2023-09-07T14:30:55;4.45;;;2.83;;
31584;SDS011;18191;51.288;12.390;2023-09-07T14:35:48;3.97;;;2.20;;
31584;SDS011;18191;51.288;12.390;2023-09-07T14:40:43;4.07;;;2.80;;
31584;SDS011;18191;51.288;12.390;2023-09-07T14:45:35;5.38;;;2.60;;
31584;SDS011;18191;51.288;12.390;2023-09-07T14:50:25;5.30;;;2.75;;
31584;SDS011;18191;51.288;12.390;2023-09-07T14:55:16;4.30;;;2.60;;
31584;SDS011;18191;51.288;12.390;2023-09-07T15:00:07;8.80;;;2.70;;
31584;SDS011;18191;51.288;12.390;2023-09-07T15:04:57;4.15;;;2.40;;
31584;SDS011;18191;51.288;12.390;2023-09-07T15:09:49;5.53;;;2.72;;
31584;SDS011;18191;51.288;12.390;2023-09-07T15:14:39;4.22;;;2.20;;
31584;SDS011;18191;51.288;12.390;2023-09-07T15:19:30;5.13;;;2.78;;
31584;SDS011;18191;51.288;12.390;2023-09-07T15:24:20;4.25;;;2.38;;
31584;SDS011;18191;51.288;12.390;2023-09-07T15:29:11;5.68;;;2.50;;
31584;SDS011;18191;51.288;12.390;2023-09-07T15:34:02;4.03;;;2.42;;
31584;SDS011;18191;51.288;12.390;2023-09-07T15:38:52;3.58;;;2.40;;
31584;SDS011;18191;51.288;12.390;2023-09-07T15:43:43;6.97;;;3.15;;
31584;SDS011;18191;51.288;12.390;2023-09-07T15:48:33;5.43;;;2.63;;
31584;SDS011;18191;51.288;12.390;2023-09-07T15:53:24;16.30;;;2.70;;
31584;SDS011;18191;51.288;12.390;2023-09-07T15:58:14;9.45;;;4.00;;
31584;SDS011;18191;51.288;12.390;2023-09-07T16:03:04;5.90;;;2.72;;
31584;SDS011;18191;51.288;12.390;2023-09-07T16:07:55;6.82;;;2.63;;
31584;SDS011;18191;51.288;12.390;2023-09-07T16:12:45;4.22;;;2.55;;
31584;SDS011;18191;51.288;12.390;2023-09-07T16:17:35;7.20;;;2.90;;
31584;SDS011;18191;51.288;12.390;2023-09-07T16:22:25;4.75;;;2.65;;
31584;SDS011;18191;51.288;12.390;2023-09-07T16:27:16;5.82;;;2.67;;
31584;SDS011;18191;51.288;12.390;2023-09-07T16:32:07;11.40;;;2.90;;
31584;SDS011;18191;51.288;12.390;2023-09-07T16:36:58;6.95;;;2.70;;
31584;SDS011;18191;51.288;12.390;2023-09-07T16:41:49;4.80;;;2.38;;
31584;SDS011;18191;51.288;12.390;2023-09-07T16:46:39;6.80;;;2.80;;
31584;SDS011;18191;51.288;12.390;2023-09-07T16:51:29;5.25;;;2.25;;
31584;SDS011;18191;51.288;12.390;2023-09-07T16:56:19;5.78;;;2.63;;
31584;SDS011;18191;51.288;12.390;2023-09-07T17:01:10;5.72;;;2.85;;
31584;SDS011;18191;51.288;12.390;2023-09-07T17:06:01;8.07;;;2.50;;
31584;SDS011;18191;51.288;12.390;2023-09-07T17:10:51;11.05;;;2.92;;
31584;SDS011;18191;51.288;12.390;2023-09-07T17:15:41;16.80;;;2.65;;
31584;SDS011;18191;51.288;12.390;2023-09-07T17:20:34;6.35;;;2.58;;
31584;SDS011;18191;51.288;12.390;2023-09-07T17:25:25;8.20;;;2.85;;
31584;SDS011;18191;51.288;12.390;2023-09-07T17:30:15;7.70;;;3.38;;
31584;SDS011;18191;51.288;12.390;2023-09-07T17:44:45;6.65;;;3.15;;
31584;SDS011;18191;51.288;12.390;2023-09-07T17:54:26;9.43;;;3.97;;
31584;SDS011;18191;51.288;12.390;2023-09-07T17:59:16;7.03;;;3.80;;
31584;SDS011;18191;51.288;12.390;2023-09-07T18:04:06;8.60;;;3.78;;
31584;SDS011;18191;51.288;12.390;2023-09-07T18:08:57;22.92;;;4.05;;
31584;SDS011;18191;51.288;12.390;2023-09-07T18:13:47;9.63;;;3.88;;
31584;SDS011;18191;51.288;12.390;2023-09-07T18:18:37;12.73;;;3.95;;
31584;SDS011;18191;51.288;12.390;2023-09-07T18:23:27;13.68;;;3.65;;
31584;SDS011;18191;51.288;12.390;2023-09-07T18:28:18;7.53;;;3.95;;
31584;SDS011;18191;51.288;12.390;2023-09-07T18:33:08;10.70;;;3.92;;
31584;SDS011;18191;51.288;12.390;2023-09-07T18:37:59;15.82;;;5.10;;
31584;SDS011;18191;51.288;12.390;2023-09-07T18:42:49;7.53;;;3.63;;
31584;SDS011;18191;51.288;12.390;2023-09-07T18:47:40;9.82;;;4.20;;
31584;SDS011;18191;51.288;12.390;2023-09-07T18:52:30;9.32;;;4.38;;
31584;SDS011;18191;51.288;12.390;2023-09-07T18:57:22;10.85;;;4.30;;
31584;SDS011;18191;51.288;12.390;2023-09-07T19:02:13;10.55;;;4.28;;
31584;SDS011;18191;51.288;12.390;2023-09-07T19:07:04;11.50;;;3.70;;
31584;SDS011;18191;51.288;12.390;2023-09-07T19:11:54;9.15;;;3.88;;
31584;SDS011;18191;51.288;12.390;2023-09-07T19:16:46;11.55;;;4.15;;
31584;SDS011;18191;51.288;12.390;2023-09-07T19:21:36;10.63;;;3.80;;
31584;SDS011;18191;51.288;12.390;2023-09-07T19:26:33;10.02;;;4.20;;
31584;SDS011;18191;51.288;12.390;2023-09-07T19:31:24;9.05;;;4.63;;
31584;SDS011;18191;51.288;12.390;2023-09-07T19:36:15;11.98;;;3.75;;
31584;SDS011;18191;51.288;12.390;2023-09-07T19:41:05;8.48;;;4.03;;
31584;SDS011;18191;51.288;12.390;2023-09-07T19:45:55;11.48;;;4.20;;
31584;SDS011;18191;51.288;12.390;2023-09-07T19:50:45;11.20;;;4.53;;
31584;SDS011;18191;51.288;12.390;2023-09-07T19:55:35;10.38;;;4.55;;
31584;SDS011;18191;51.288;12.390;2023-09-07T20:00:26;9.63;;;3.92;;
31584;SDS011;18191;51.288;12.390;2023-09-07T20:05:16;8.07;;;3.65;;
31584;SDS011;18191;51.288;12.390;2023-09-07T20:10:06;10.20;;;3.55;;
31584;SDS011;18191;51.288;12.390;2023-09-07T20:14:59;10.02;;;4.35;;
31584;SDS011;18191;51.288;12.390;2023-09-07T20:19:49;6.95;;;3.50;;
31584;SDS011;18191;51.288;12.390;2023-09-07T20:24:39;18.00;;;4.53;;
31584;SDS011;18191;51.288;12.390;2023-09-07T20:29:29;18.67;;;5.22;;
31584;SDS011;18191;51.288;12.390;2023-09-07T20:34:19;6.97;;;3.55;;
31584;SDS011;18191;51.288;12.390;2023-09-07T20:39:10;11.90;;;3.42;;
31584;SDS011;18191;51.288;12.390;2023-09-07T20:44:00;10.10;;;3.73;;
31584;SDS011;18191;51.288;12.390;2023-09-07T20:48:50;8.38;;;4.07;;
31584;SDS011;18191;51.288;12.390;2023-09-07T20:53:40;24.73;;;4.22;;
31584;SDS011;18191;51.288;12.390;2023-09-07T20:58:31;8.93;;;4.47;;
31584;SDS011;18191;51.288;12.390;2023-09-07T21:03:21;9.15;;;3.88;;
31584;SDS011;18191;51.288;12.390;2023-09-07T21:08:12;8.85;;;3.95;;
31584;SDS011;18191;51.288;12.390;2023-09-07T21:13:02;21.77;;;4.70;;
31584;SDS011;18191;51.288;12.390;2023-09-07T21:17:53;11.02;;;4.22;;
31584;SDS011;18191;51.288;12.390;2023-09-07T21:22:43;9.90;;;3.42;;
31584;SDS011;18191;51.288;12.390;2023-09-07T21:27:34;6.32;;;3.25;;
31584;SDS011;18191;51.288;12.390;2023-09-07T21:32:24;11.00;;;3.75;;
31584;SDS011;18191;51.288;12.390;2023-09-07T21:37:15;8.35;;;3.88;;
31584;SDS011;18191;51.288;12.390;2023-09-07T21:42:05;9.38;;;4.25;;
31584;SDS011;18191;51.288;12.390;2023-09-07T21:46:55;6.75;;;3.45;;
31584;SDS011;18191;51.288;12.390;2023-09-07T21:51:46;13.23;;;4.50;;
31584;SDS011;18191;51.288;12.390;2023-09-07T21:56:37;6.75;;;3.65;;
31584;SDS011;18191;51.288;12.390;2023-09-07T22:01:27;7.28;;;4.07;;
31584;SDS011;18191;51.288;12.390;2023-09-07T22:06:18;8.27;;;3.72;;
31584;SDS011;18191;51.288;12.390;2023-09-07T22:11:08;11.95;;;4.22;;
31584;SDS011;18191;51.288;12.390;2023-09-07T22:15:59;14.60;;;3.72;;
31584;SDS011;18191;51.288;12.390;2023-09-07T22:20:49;9.50;;;3.65;;
31584;SDS011;18191;51.288;12.390;2023-09-07T22:25:39;8.32;;;3.88;;
31584;SDS011;18191;51.288;12.390;2023-09-07T22:30:30;7.97;;;3.75;;
31584;SDS011;18191;51.288;12.390;2023-09-07T22:35:20;10.82;;;4.65;;
31584;SDS011;18191;51.288;12.390;2023-09-07T22:40:10;14.18;;;4.13;;
31584;SDS011;18191;51.288;12.390;2023-09-07T22:45:05;9.80;;;4.25;;
31584;SDS011;18191;51.288;12.390;2023-09-07T22:49:55;8.40;;;4.40;;
31584;SDS011;18191;51.288;12.390;2023-09-07T22:54:46;6.75;;;3.97;;
31584;SDS011;18191;51.288;12.390;2023-09-07T22:59:36;12.13;;;3.85;;
31584;SDS011;18191;51.288;12.390;2023-09-07T23:04:26;8.50;;;4.35;;
31584;SDS011;18191;51.288;12.390;2023-09-07T23:09:16;11.40;;;4.00;;
31584;SDS011;18191;51.288;12.390;2023-09-07T23:14:07;14.02;;;4.47;;
31584;SDS011;18191;51.288;12.390;2023-09-07T23:18:57;10.43;;;3.63;;
31584;SDS011;18191;51.288;12.390;2023-09-07T23:23:48;8.75;;;3.75;;
31584;SDS011;18191;51.288;12.390;2023-09-07T23:28:38;9.55;;;4.53;;
31584;SDS011;18191;51.288;12.390;2023-09-07T23:33:30;10.50;;;3.97;;
31584;SDS011;18191;51.288;12.390;2023-09-07T23:38:21;12.52;;;4.82;;
31584;SDS011;18191;51.288;12.390;2023-09-07T23:43:11;9.68;;;3.72;;
31584;SDS011;18191;51.288;12.390;2023-09-07T23:48:01;10.95;;;4.60;;
31584;SDS011;18191;51.288;12.390;2023-09-07T23:52:52;8.57;;;4.88;;
31584;SDS011;18191;51.288;12.390;2023-09-07T23:57:42;9.10;;;4.32;;
